Terminal Aerodrome Forecast
Issued by NWS Atlanta, GA

Home | Current Version | Previous Version | Text Only | Print | Product List | Glossary On
Versions: 1 2 3 4 5 6 7 8 9 10 11 12 13
000
FTUS42 KFFC 312330
TAFCSG
TAF
KCSG 312330Z 0100/0124 11003KT P6SM SCT150
     FM011400 14005KT P6SM SCT050 BKN120
     FM011800 17008KT P6SM SCT025 OVC050
     FM012100 17009KT P6SM -RA OVC025
     FM012300 18007KT 5SM -RA BR OVC015=

USA.gov is the U.S. government's official web portal to all federal, state and local government web resources and services.